createdAt,value
2023-02-23T00:00:35.729Z,97206.81
2023-02-23T00:03:04.539Z,97202.16
2023-02-23T00:05:36.737Z,97208.19
2023-02-23T00:08:07.263Z,97196.09
2023-02-23T00:10:35.470Z,97198.94
2023-02-23T00:13:05.121Z,97200.78
2023-02-23T00:15:33.369Z,97198.38
2023-02-23T00:18:04.674Z,97195.47
2023-02-23T00:20:32.943Z,97200.59
2023-02-23T00:23:01.179Z,97195.53
2023-02-23T00:25:31.993Z,97200.41
2023-02-23T00:28:00.191Z,97201.84
2023-02-23T00:30:28.595Z,97198.41
2023-02-23T00:32:57.033Z,97207.81
2023-02-23T00:35:25.530Z,97206.13
2023-02-23T00:37:53.768Z,97202.00
2023-02-23T00:40:23.835Z,97202.34
2023-02-23T00:42:53.464Z,97195.13
2023-02-23T00:45:21.685Z,97199.44
2023-02-23T00:47:49.914Z,97207.72
2023-02-23T00:50:19.390Z,97206.63
2023-02-23T00:52:47.853Z,97205.72
2023-02-23T00:55:16.718Z,97210.00
2023-02-23T00:57:44.950Z,97209.06
2023-02-23T01:00:18.629Z,97215.72
2023-02-23T01:02:47.530Z,97212.13
2023-02-23T01:05:16.875Z,97216.25
2023-02-23T01:07:47.330Z,97219.59
2023-02-23T01:10:21.266Z,97222.16
2023-02-23T01:12:50.866Z,97220.94
2023-02-23T01:15:21.789Z,97215.84
2023-02-23T01:17:50.046Z,97220.66
2023-02-23T01:20:19.495Z,97222.03
2023-02-23T01:22:49.901Z,97226.19
2023-02-23T01:25:19.388Z,97227.88
2023-02-23T01:27:47.731Z,97221.13
2023-02-23T01:30:17.035Z,97217.78
2023-02-23T01:32:46.947Z,97215.91
2023-02-23T01:35:15.427Z,97219.13
2023-02-23T01:37:45.173Z,97213.91
2023-02-23T01:40:16.675Z,97220.63
2023-02-23T01:42:47.020Z,97215.53
2023-02-23T01:45:31.494Z,97221.38
2023-02-23T01:48:04.596Z,97215.53
2023-02-23T01:50:39.850Z,97211.28
2023-02-23T01:53:08.151Z,97214.72
2023-02-23T01:55:36.464Z,97212.91
2023-02-23T01:58:08.486Z,97210.25
2023-02-23T02:00:37.791Z,97207.09
2023-02-23T02:03:14.159Z,97213.16
2023-02-23T02:05:45.607Z,97218.78
2023-02-23T02:08:14.056Z,97212.84
2023-02-23T02:10:47.367Z,97206.25
2023-02-23T02:13:21.938Z,97203.88
2023-02-23T02:16:21.963Z,97202.72
2023-02-23T02:19:06.125Z,97204.28
2023-02-23T02:21:51.842Z,97204.94
2023-02-23T02:24:47.569Z,97207.16
2023-02-23T02:27:27.647Z,97204.69
2023-02-23T02:30:13.685Z,97195.53
2023-02-23T02:33:19.909Z,97197.19
2023-02-23T02:36:08.737Z,97204.03
2023-02-23T02:38:50.730Z,97193.81
2023-02-23T02:41:27.200Z,97200.84
2023-02-23T02:44:00.032Z,97202.00
2023-02-23T02:46:30.538Z,97206.31
2023-02-23T02:49:01.723Z,97197.59
2023-02-23T02:51:37.070Z,97197.44
2023-02-23T02:54:11.609Z,97202.78
2023-02-23T02:56:42.606Z,97200.47
2023-02-23T02:59:31.514Z,97197.13
2023-02-23T03:02:18.164Z,97199.44
2023-02-23T03:05:04.293Z,97198.41
2023-02-23T03:07:53.446Z,97192.19
2023-02-23T03:10:45.944Z,97196.44
2023-02-23T03:13:37.950Z,97204.81
2023-02-23T03:16:35.014Z,97203.53
2023-02-23T03:19:29.592Z,97204.50
2023-02-23T03:22:22.747Z,97206.25
2023-02-23T03:25:13.163Z,97206.31
2023-02-23T03:28:05.369Z,97206.72
2023-02-23T03:30:59.600Z,97213.13
2023-02-23T03:33:51.205Z,97215.19
2023-02-23T03:36:44.415Z,97213.38
2023-02-23T03:39:36.326Z,97216.59
2023-02-23T03:42:25.003Z,97214.50
2023-02-23T03:45:13.404Z,97225.06
2023-02-23T03:48:00.938Z,97224.94
2023-02-23T03:50:50.975Z,97223.34
2023-02-23T03:53:38.580Z,97232.19
2023-02-23T03:56:25.786Z,97236.00
2023-02-23T03:59:17.135Z,97234.09
2023-02-23T04:02:04.732Z,97232.78
2023-02-23T04:04:50.725Z,97233.69
2023-02-23T04:07:38.153Z,97233.09
2023-02-23T04:10:25.606Z,97237.22
2023-02-23T04:13:15.956Z,97233.91
2023-02-23T04:15:48.525Z,97231.47
2023-02-23T04:18:20.855Z,97224.69
2023-02-23T04:20:49.106Z,97230.69
2023-02-23T04:23:17.624Z,97228.44
2023-02-23T04:25:45.862Z,97225.31
2023-02-23T04:28:14.131Z,97226.91
2023-02-23T04:30:42.356Z,97222.50
2023-02-23T04:33:11.144Z,97221.72
2023-02-23T04:35:40.981Z,97231.50
2023-02-23T04:38:09.568Z,97225.81
2023-02-23T04:40:37.943Z,97234.63
2023-02-23T04:43:06.272Z,97234.47
2023-02-23T04:45:34.915Z,97236.09
2023-02-23T04:48:03.114Z,97237.00
2023-02-23T04:50:32.609Z,97233.66
2023-02-23T04:53:02.364Z,97233.03
2023-02-23T04:55:30.632Z,97240.88
2023-02-23T04:58:01.763Z,97235.03
2023-02-23T05:00:30.489Z,97235.78
2023-02-23T05:02:58.865Z,97248.28
2023-02-23T05:05:27.257Z,97235.94
2023-02-23T05:07:55.769Z,97244.28
2023-02-23T05:10:25.544Z,97240.03
2023-02-23T05:12:53.773Z,97245.00
2023-02-23T05:15:22.614Z,97243.03
2023-02-23T05:17:50.883Z,97243.53
2023-02-23T05:20:19.224Z,97245.84
2023-02-23T05:22:47.475Z,97246.78
2023-02-23T05:25:15.807Z,97245.91
2023-02-23T05:27:45.449Z,97249.59
2023-02-23T05:30:14.144Z,97242.81
2023-02-23T05:32:42.383Z,97242.19
2023-02-23T05:35:11.125Z,97247.25
2023-02-23T05:37:39.414Z,97251.53
2023-02-23T05:40:09.334Z,97250.53
2023-02-23T05:42:38.591Z,97251.44
2023-02-23T05:45:09.421Z,97253.28
2023-02-23T05:47:38.986Z,97261.28
2023-02-23T05:50:08.736Z,97257.28
2023-02-23T05:52:39.116Z,97260.09
2023-02-23T05:55:08.387Z,97260.50
2023-02-23T05:57:37.026Z,97250.38
2023-02-23T06:00:06.584Z,97253.16
2023-02-23T06:02:36.640Z,97253.78
2023-02-23T06:05:06.140Z,97262.34
2023-02-23T06:07:34.713Z,97261.97
2023-02-23T06:10:03.192Z,97248.34
2023-02-23T06:12:31.628Z,97259.50
2023-02-23T06:15:00.017Z,97258.31
2023-02-23T06:17:28.403Z,97263.66
2023-02-23T06:19:59.118Z,97260.31
2023-02-23T06:22:27.495Z,97270.22
2023-02-23T06:24:55.877Z,97271.03
2023-02-23T06:27:24.119Z,97277.97
2023-02-23T06:29:52.432Z,97280.81
2023-02-23T06:32:20.731Z,97279.91
2023-02-23T06:34:51.143Z,97284.88
2023-02-23T06:37:20.970Z,97301.56
2023-02-23T06:39:50.920Z,97291.94
2023-02-23T06:42:19.291Z,97302.19
2023-02-23T06:44:47.670Z,97311.50
2023-02-23T06:47:15.909Z,97316.66
2023-02-23T06:49:44.158Z,97317.50
2023-02-23T06:52:13.603Z,97327.69
2023-02-23T06:54:43.770Z,97329.47
2023-02-23T06:57:12.463Z,97337.97
2023-02-23T06:59:40.733Z,97339.63
2023-02-23T07:02:09.836Z,97341.97
2023-02-23T07:04:38.036Z,97342.66
2023-02-23T07:07:06.905Z,97334.03
2023-02-23T07:09:35.253Z,97336.63
2023-02-23T07:12:05.424Z,97344.22
2023-02-23T07:14:34.360Z,97354.56
2023-02-23T07:17:02.747Z,97353.63
2023-02-23T07:19:31.216Z,97350.19
2023-02-23T07:21:59.562Z,97352.53
2023-02-23T07:24:28.436Z,97360.56
2023-02-23T07:26:56.944Z,97359.97
2023-02-23T07:29:28.315Z,97365.59
2023-02-23T07:31:56.810Z,97367.06
2023-02-23T07:34:25.659Z,97364.13
2023-02-23T07:36:53.941Z,97362.16
2023-02-23T07:39:22.364Z,97354.06
2023-02-23T07:41:50.628Z,97348.47
2023-02-23T07:44:20.091Z,97353.78
2023-02-23T07:46:50.748Z,97353.56
2023-02-23T07:49:19.037Z,97347.88
2023-02-23T07:51:47.534Z,97343.25
2023-02-23T07:54:16.300Z,97343.03
2023-02-23T07:56:46.411Z,97342.97
2023-02-23T07:59:25.855Z,97347.06
2023-02-23T08:02:53.391Z,97349.34
2023-02-23T08:05:33.925Z,97350.84
2023-02-23T08:08:04.881Z,97344.22
2023-02-23T08:10:36.723Z,97339.47
2023-02-23T08:13:05.109Z,97326.94
2023-02-23T08:15:33.594Z,97337.88
2023-02-23T08:18:01.960Z,97327.09
2023-02-23T08:20:36.719Z,97331.19
2023-02-23T08:23:06.317Z,97322.63
2023-02-23T08:25:34.595Z,97312.97
2023-02-23T08:28:04.841Z,97321.72
2023-02-23T08:30:33.863Z,97319.41
2023-02-23T08:33:02.388Z,97317.78
2023-02-23T08:35:32.604Z,97302.56
2023-02-23T08:38:01.456Z,97301.63
2023-02-23T08:40:30.121Z,97305.19
2023-02-23T08:42:58.734Z,97295.22
2023-02-23T08:45:29.733Z,97307.69
2023-02-23T08:47:58.580Z,97302.91
2023-02-23T08:50:27.574Z,97302.97
2023-02-23T08:52:57.353Z,97300.53
2023-02-23T08:55:25.645Z,97298.94
2023-02-23T08:57:53.946Z,97297.22
2023-02-23T09:00:23.053Z,97296.53
2023-02-23T09:02:51.717Z,97302.44
2023-02-23T09:05:20.509Z,97298.25
2023-02-23T09:07:49.350Z,97301.69
2023-02-23T09:10:21.122Z,97296.59
2023-02-23T09:12:49.351Z,97301.72
2023-02-23T09:15:17.700Z,97300.88
2023-02-23T09:17:47.296Z,97294.00
2023-02-23T09:20:17.012Z,97300.84
2023-02-23T09:22:48.885Z,97305.16
2023-02-23T09:25:22.905Z,97309.44
2023-02-23T09:27:52.001Z,97305.16
2023-02-23T09:30:22.371Z,97312.00
2023-02-23T09:32:52.314Z,97304.25
2023-02-23T09:35:22.475Z,97305.06
2023-02-23T09:37:52.370Z,97302.53
2023-02-23T09:40:26.651Z,97306.00
2023-02-23T09:43:00.414Z,97305.06
2023-02-23T09:45:35.377Z,97306.81
2023-02-23T09:48:18.383Z,97310.31
2023-02-23T09:50:50.738Z,97302.56
2023-02-23T09:53:29.344Z,97309.47
2023-02-23T09:56:00.082Z,97315.50
2023-02-23T09:58:30.314Z,97310.31
2023-02-23T10:01:22.449Z,97319.78
2023-02-23T10:03:55.615Z,97318.94
2023-02-23T10:06:24.097Z,97318.06
2023-02-23T10:08:59.201Z,97322.34
2023-02-23T10:11:33.425Z,97312.03
2023-02-23T10:14:09.991Z,97314.63
2023-02-23T10:16:46.532Z,97313.78
2023-02-23T10:19:22.902Z,97312.88
2023-02-23T10:21:56.653Z,97315.47
2023-02-23T10:24:28.805Z,97313.78
2023-02-23T10:27:01.618Z,97316.34
2023-02-23T10:29:33.536Z,97314.63
2023-02-23T10:32:04.414Z,97314.63
2023-02-23T10:34:32.838Z,97316.31
2023-02-23T10:37:02.236Z,97312.88
2023-02-23T10:39:31.406Z,97299.97
2023-02-23T10:42:05.768Z,97300.84
2023-02-23T10:44:34.068Z,97302.50
2023-02-23T10:47:04.656Z,97299.03
2023-02-23T10:49:40.098Z,97296.44
2023-02-23T10:52:13.668Z,97293.84
2023-02-23T10:54:45.754Z,97295.50
2023-02-23T10:57:22.149Z,97290.28
2023-02-23T11:00:07.524Z,97295.25
2023-02-23T11:02:37.654Z,97289.25
2023-02-23T11:05:07.204Z,97282.97
2023-02-23T11:07:35.801Z,97272.59
2023-02-23T11:10:27.459Z,97275.19
2023-02-23T11:12:57.258Z,97264.50
2023-02-23T11:15:48.072Z,97263.56
2023-02-23T11:18:21.785Z,97265.84
2023-02-23T11:20:50.188Z,97260.81
2023-02-23T11:23:23.189Z,97258.28
2023-02-23T11:25:55.589Z,97251.56
2023-02-23T11:28:30.309Z,97248.84
2023-02-23T11:31:01.796Z,97243.91
2023-02-23T11:33:36.011Z,97240.53
2023-02-23T11:36:19.807Z,97228.16
2023-02-23T11:38:48.439Z,97229.13
2023-02-23T11:41:23.056Z,97227.44
2023-02-23T11:43:58.092Z,97222.72
2023-02-23T11:46:27.745Z,97222.53
2023-02-23T11:49:01.835Z,97225.41
2023-02-23T11:51:32.049Z,97218.16
2023-02-23T11:54:00.720Z,97215.41
2023-02-23T11:56:30.669Z,97214.19
2023-02-23T11:59:02.599Z,97215.81
2023-02-23T12:01:41.881Z,97215.34
2023-02-23T12:04:10.994Z,97217.81
2023-02-23T12:06:40.910Z,97215.56
2023-02-23T12:09:18.481Z,97206.34
2023-02-23T12:11:51.948Z,97212.75
2023-02-23T12:14:29.218Z,97211.94
2023-02-23T12:17:02.417Z,97211.84
2023-02-23T12:19:34.701Z,97205.03
2023-02-23T12:22:05.590Z,97203.72
2023-02-23T12:24:43.466Z,97201.53
2023-02-23T12:27:15.523Z,97195.63
2023-02-23T12:30:00.127Z,97200.75
2023-02-23T12:32:30.869Z,97198.94
2023-02-23T12:35:02.528Z,97203.44
2023-02-23T12:37:38.120Z,97196.06
2023-02-23T12:40:16.166Z,97192.59
2023-02-23T12:42:50.982Z,97196.00
2023-02-23T12:45:25.023Z,97187.59
2023-02-23T12:48:01.378Z,97187.59
2023-02-23T12:50:33.872Z,97183.28
2023-02-23T12:53:08.874Z,97186.00
2023-02-23T12:55:45.327Z,97179.34
2023-02-23T12:58:22.154Z,97185.31
2023-02-23T13:00:59.361Z,97184.53
2023-02-23T13:03:57.514Z,97181.13
2023-02-23T13:06:31.567Z,97180.34
2023-02-23T13:09:07.016Z,97186.25
2023-02-23T13:11:52.778Z,97183.72
2023-02-23T13:14:27.811Z,97186.22
2023-02-23T13:17:03.280Z,97176.88
2023-02-23T13:19:36.645Z,97178.66
2023-02-23T13:22:18.168Z,97182.72
2023-02-23T13:24:49.276Z,97171.63
2023-02-23T13:27:20.732Z,97179.47
2023-02-23T13:29:50.879Z,97176.03
2023-02-23T13:32:22.480Z,97178.56
2023-02-23T13:34:53.553Z,97179.72
2023-02-23T13:37:26.440Z,97178.78
2023-02-23T13:40:00.752Z,97173.66
2023-02-23T13:42:35.763Z,97187.41
2023-02-23T13:45:22.430Z,97189.16
2023-02-23T13:47:57.096Z,97184.91
2023-02-23T13:50:30.016Z,97195.31
2023-02-23T13:53:05.049Z,97183.03
2023-02-23T13:55:55.098Z,97185.78
2023-02-23T13:58:28.486Z,97195.34
2023-02-23T14:01:06.758Z,97184.94
2023-02-23T14:03:42.911Z,97186.56
2023-02-23T14:06:14.529Z,97190.91
2023-02-23T14:08:45.194Z,97190.97
2023-02-23T14:11:31.751Z,97186.66
2023-02-23T14:14:02.460Z,97191.03
2023-02-23T14:16:31.039Z,97196.13
2023-02-23T14:19:13.774Z,97193.53
2023-02-23T14:21:50.085Z,97196.28
2023-02-23T14:24:21.703Z,97191.13
2023-02-23T14:27:38.610Z,97191.91
2023-02-23T14:30:18.260Z,97179.81
2023-02-23T14:32:48.986Z,97182.47
2023-02-23T14:35:48.868Z,97181.53
2023-02-23T14:38:25.757Z,97181.66
2023-02-23T14:40:55.499Z,97179.19
2023-02-23T14:43:42.558Z,97188.63
2023-02-23T14:46:14.534Z,97184.47
2023-02-23T14:48:46.438Z,97187.09
2023-02-23T14:51:22.667Z,97179.25
2023-02-23T14:53:53.588Z,97187.88
2023-02-23T14:56:28.081Z,97187.06
2023-02-23T14:59:01.089Z,97190.47
2023-02-23T15:01:36.888Z,97185.28
2023-02-23T15:04:11.402Z,97183.53
2023-02-23T15:06:45.993Z,97179.13
2023-02-23T15:09:19.969Z,97178.28
2023-02-23T15:11:57.979Z,97178.34
2023-02-23T15:14:28.431Z,97178.28
2023-02-23T15:16:58.421Z,97175.75
2023-02-23T15:19:34.921Z,97176.69
2023-02-23T15:22:06.513Z,97170.59
2023-02-23T15:24:43.042Z,97169.50
2023-02-23T15:27:18.769Z,97177.41
2023-02-23T15:29:48.800Z,97178.34
2023-02-23T15:32:22.029Z,97179.25
2023-02-23T15:34:50.593Z,97181.88
2023-02-23T15:37:30.987Z,97179.34
2023-02-23T15:40:01.282Z,97177.59
2023-02-23T15:42:36.654Z,97174.16
2023-02-23T15:45:06.954Z,97175.84
2023-02-23T15:47:39.231Z,97183.59
2023-02-23T15:50:14.363Z,97177.66
2023-02-23T15:52:50.470Z,97169.91
2023-02-23T15:55:26.192Z,97175.97
2023-02-23T15:58:10.384Z,97176.78
2023-02-23T16:00:41.145Z,97175.06
2023-02-23T16:03:24.616Z,97178.47
2023-02-23T16:06:05.507Z,97173.31
2023-02-23T16:08:57.402Z,97177.66
2023-02-23T16:11:26.479Z,97175.97
2023-02-23T16:13:58.927Z,97173.44
2023-02-23T16:16:28.904Z,97176.00
2023-02-23T16:19:06.088Z,97169.16
2023-02-23T16:21:36.707Z,97176.88
2023-02-23T16:24:12.159Z,97175.13
2023-02-23T16:26:46.473Z,97164.88
2023-02-23T16:29:19.345Z,97164.91
2023-02-23T16:31:50.169Z,97177.84
2023-02-23T16:34:22.973Z,97180.47
2023-02-23T16:36:53.878Z,97186.50
2023-02-23T16:39:29.195Z,97185.69
2023-02-23T16:42:00.328Z,97183.13
2023-02-23T16:44:43.527Z,97183.16
2023-02-23T16:47:38.341Z,97188.34
2023-02-23T16:50:24.354Z,97176.34
2023-02-23T16:52:57.940Z,97178.91
2023-02-23T16:55:29.230Z,97187.50
2023-02-23T16:58:05.178Z,97184.09
2023-02-23T17:00:35.879Z,97187.50
2023-02-23T17:03:08.721Z,97187.50
2023-02-23T17:05:44.804Z,97193.47
2023-02-23T17:08:13.778Z,97197.78
2023-02-23T17:10:44.664Z,97193.44
2023-02-23T17:13:21.041Z,97202.00
2023-02-23T17:15:53.852Z,97205.47
2023-02-23T17:20:55.754Z,97201.19
2023-02-23T17:23:27.325Z,97202.81
2023-02-23T17:25:58.973Z,97196.78
2023-02-23T17:28:32.898Z,97210.47
2023-02-23T17:31:02.828Z,97209.59
2023-02-23T17:33:33.561Z,97211.22
2023-02-23T17:36:03.123Z,97213.78
2023-02-23T17:38:36.360Z,97212.91
2023-02-23T17:41:09.213Z,97218.03
2023-02-23T17:43:40.927Z,97215.38
2023-02-23T17:46:10.601Z,97217.00
2023-02-23T17:48:41.343Z,97214.38
2023-02-23T17:51:17.350Z,97216.13
2023-02-23T17:53:46.966Z,97222.88
2023-02-23T17:56:18.508Z,97225.41
2023-02-23T17:58:50.462Z,97231.34
2023-02-23T18:01:21.307Z,97221.94
2023-02-23T18:03:53.585Z,97221.88
2023-02-23T18:06:24.356Z,97220.97
2023-02-23T18:08:54.260Z,97225.13
2023-02-23T18:11:26.795Z,97224.25
2023-02-23T18:13:56.723Z,97236.25
2023-02-23T18:16:28.099Z,97220.81
2023-02-23T18:19:00.315Z,97228.53
2023-02-23T18:21:51.351Z,97222.56
2023-02-23T18:24:21.651Z,97221.69
2023-02-23T18:26:53.294Z,97224.97
2023-02-23T18:29:23.563Z,97224.84
2023-02-23T18:31:52.902Z,97229.00
2023-02-23T18:34:26.066Z,97234.19
2023-02-23T18:36:58.463Z,97231.59
2023-02-23T18:39:29.488Z,97227.28
2023-02-23T18:42:02.055Z,97227.28
2023-02-23T18:44:37.669Z,97229.81
2023-02-23T18:47:08.846Z,97222.91
2023-02-23T18:49:39.187Z,97225.41
2023-02-23T18:52:10.576Z,97224.44
2023-02-23T18:54:40.812Z,97229.34
2023-02-23T18:57:12.088Z,97228.38
2023-02-23T18:59:43.789Z,97229.63
2023-02-23T19:02:14.427Z,97222.88
2023-02-23T19:04:49.328Z,97222.41
2023-02-23T19:07:24.133Z,97221.13
2023-02-23T19:09:56.050Z,97220.06
2023-02-23T19:12:29.372Z,97219.94
2023-02-23T19:15:03.740Z,97217.38
2023-02-23T19:18:03.753Z,97210.22
2023-02-23T19:20:38.328Z,97208.44
2023-02-23T19:23:15.394Z,97210.25
2023-02-23T19:25:55.279Z,97211.25
2023-02-23T19:28:31.746Z,97215.22
2023-02-23T19:31:11.669Z,97215.28
2023-02-23T19:33:45.205Z,97210.22
2023-02-23T19:36:18.079Z,97218.03
2023-02-23T19:38:49.364Z,97217.34
2023-02-23T19:41:24.598Z,97218.44
2023-02-23T19:43:56.823Z,97221.97
2023-02-23T19:46:28.255Z,97209.88
2023-02-23T19:48:59.004Z,97219.34
2023-02-23T19:51:29.090Z,97220.16
2023-02-23T19:54:01.219Z,97219.06
2023-02-23T19:56:33.684Z,97212.91
2023-02-23T19:59:06.692Z,97214.47
2023-02-23T20:01:38.076Z,97215.22
2023-02-23T20:04:10.467Z,97213.41
2023-02-23T20:06:45.140Z,97213.25
2023-02-23T20:09:16.325Z,97211.66
2023-02-23T20:11:49.196Z,97214.81
2023-02-23T20:14:25.122Z,97210.44
2023-02-23T20:16:56.786Z,97208.81
2023-02-23T20:19:29.930Z,97209.22
2023-02-23T20:22:00.633Z,97211.25
2023-02-23T20:24:30.611Z,97206.19
2023-02-23T20:27:01.061Z,97208.84
2023-02-23T20:29:35.502Z,97206.03
2023-02-23T20:32:06.647Z,97204.81
2023-02-23T20:34:39.953Z,97206.41
2023-02-23T20:37:12.160Z,97204.59
2023-02-23T20:39:46.877Z,97211.50
2023-02-23T20:42:18.648Z,97204.66
2023-02-23T20:44:50.792Z,97204.81
2023-02-23T20:47:23.665Z,97207.13
2023-02-23T20:49:57.958Z,97204.56
2023-02-23T20:52:27.929Z,97205.63
2023-02-23T20:54:58.047Z,97209.09
2023-02-23T20:57:28.169Z,97204.84
2023-02-23T21:00:10.483Z,97206.53
2023-02-23T21:02:41.831Z,97201.69
2023-02-23T21:05:12.807Z,97204.22
2023-02-23T21:07:42.135Z,97204.31
2023-02-23T21:10:14.286Z,97195.78
2023-02-23T21:12:43.918Z,97198.31
2023-02-23T21:15:15.949Z,97194.88
2023-02-23T21:17:47.139Z,97185.28
2023-02-23T21:20:20.017Z,97189.09
2023-02-23T21:22:51.522Z,97192.47
2023-02-23T21:25:26.209Z,97186.34
2023-02-23T21:27:56.001Z,97183.81
2023-02-23T21:30:28.905Z,97179.47
2023-02-23T21:33:00.412Z,97176.94
2023-02-23T21:35:30.721Z,97178.13
2023-02-23T21:38:00.000Z,97173.84
2023-02-23T21:40:28.915Z,97175.63
2023-02-23T21:43:01.523Z,97170.16
2023-02-23T21:45:31.773Z,97175.19
2023-02-23T21:48:00.114Z,97171.84
2023-02-23T21:50:29.822Z,97167.72
2023-02-23T21:52:59.021Z,97172.97
2023-02-23T21:55:27.858Z,97172.81
2023-02-23T21:57:57.022Z,97162.66
2023-02-23T22:00:27.413Z,97163.59
2023-02-23T22:02:57.151Z,97162.59
2023-02-23T22:05:25.554Z,97160.91
2023-02-23T22:07:54.873Z,97167.66
2023-02-23T22:10:26.418Z,97165.06
2023-02-23T22:12:56.190Z,97165.09
2023-02-23T22:15:33.568Z,97168.44
2023-02-23T22:18:03.247Z,97165.84
2023-02-23T22:20:31.550Z,97164.19
2023-02-23T22:22:59.742Z,97154.81
2023-02-23T22:25:28.839Z,97159.34
2023-02-23T22:28:03.417Z,97153.28
2023-02-23T22:30:31.795Z,97148.91
2023-02-23T22:33:00.340Z,97148.06
2023-02-23T22:35:30.535Z,97146.25
2023-02-23T22:38:00.483Z,97141.94
2023-02-23T22:40:30.048Z,97135.09
2023-02-23T22:42:59.366Z,97134.22
2023-02-23T22:45:27.686Z,97138.41
2023-02-23T22:48:01.503Z,97142.69
2023-02-23T22:50:31.955Z,97130.81
2023-02-23T22:53:01.511Z,97136.75
2023-02-23T22:55:30.347Z,97136.03
2023-02-23T22:57:59.900Z,97132.59
2023-02-23T23:00:29.076Z,97129.88
2023-02-23T23:02:57.375Z,97134.94
2023-02-23T23:05:26.088Z,97118.75
2023-02-23T23:07:56.490Z,97119.63
2023-02-23T23:10:24.800Z,97120.50
2023-02-23T23:12:54.353Z,97120.53
2023-02-23T23:15:23.579Z,97123.09
2023-02-23T23:17:51.875Z,97116.28
2023-02-23T23:20:25.847Z,97111.09
2023-02-23T23:22:57.284Z,97114.56
2023-02-23T23:25:26.091Z,97116.19
2023-02-23T23:27:55.639Z,97114.53
2023-02-23T23:30:26.196Z,97113.63
2023-02-23T23:32:54.862Z,97112.75
2023-02-23T23:35:23.373Z,97106.78
2023-02-23T23:37:52.129Z,97108.69
2023-02-23T23:40:24.611Z,97100.94
2023-02-23T23:42:53.292Z,97096.75
2023-02-23T23:45:24.428Z,97090.84
2023-02-23T23:47:53.028Z,97087.34
2023-02-23T23:50:26.781Z,97088.13
2023-02-23T23:52:57.182Z,97082.13
2023-02-23T23:55:31.081Z,97083.00
2023-02-23T23:58:00.489Z,97081.25
